Time;durP1;ratioP1;P1;durP2;ratioP2;P2;SDS_P1;SDS_P2;PMS_P1;PMS_P2;Temp;Humidity;BMP_temperature;BMP_pressure;BME280_temperature;BME280_humidity;BME280_pressure;Samples;Min_cycle;Max_cycle;Signal;HPM_P1;HPM_P2
2023/04/16 00:02:21;;;;;;;;;14.67;13.00;;;;;11.55;51.08;101579.81;5054507;28;61427;-57
2023/04/16 00:04:46;;;;;;;;;11.33;11.33;;;;;11.49;50.94;101574.69;5055129;28;45483;-58
2023/04/16 00:07:12;;;;;;;;;9.33;9.33;;;;;11.43;51.21;101570.44;5054955;28;45647;-57
2023/04/16 00:09:37;;;;;;;;;9.67;9.67;;;;;11.48;50.66;101589.66;5055172;28;45441;-58
2023/04/16 00:12:03;;;;;;;;;11.67;11.67;;;;;11.36;50.65;101568.84;5054105;28;46228;-57
2023/04/16 00:14:29;;;;;;;;;9.33;9.33;;;;;11.40;50.94;101582.84;5054013;28;45436;-57
2023/04/16 00:16:54;;;;;;;;;8.33;8.33;;;;;11.38;51.30;101585.50;5055033;28;45442;-57
2023/04/16 00:19:20;;;;;;;;;8.67;8.67;;;;;11.42;50.89;101588.94;5050246;28;45583;-57
2023/04/16 00:21:45;;;;;;;;;8.67;8.67;;;;;11.41;49.97;101592.44;5045770;28;56227;-57
2023/04/16 00:24:10;;;;;;;;;9.67;7.67;;;;;11.41;50.24;101587.19;5054869;28;45415;-57
2023/04/16 00:26:36;;;;;;;;;8.67;7.00;;;;;11.41;50.08;101592.44;5054169;28;45466;-57
2023/04/16 00:29:01;;;;;;;;;9.00;8.00;;;;;11.41;50.56;101589.81;5054267;28;45348;-57
2023/04/16 00:31:28;;;;;;;;;9.67;7.67;;;;;11.37;50.80;101583.78;5054737;28;45440;-57
2023/04/16 00:33:53;;;;;;;;;9.33;9.33;;;;;11.34;50.09;101589.09;5054692;28;45439;-57
2023/04/16 00:36:19;;;;;;;;;8.00;8.00;;;;;11.34;50.95;101588.22;5056746;28;45493;-57
2023/04/16 00:38:44;;;;;;;;;10.00;9.00;;;;;11.23;50.18;101573.56;5058027;28;45363;-57
2023/04/16 00:41:09;;;;;;;;;9.00;7.00;;;;;11.36;51.01;101587.28;5057492;28;46085;-57
2023/04/16 00:43:35;;;;;;;;;9.00;9.00;;;;;11.12;51.02;101549.19;5056763;28;45527;-57
2023/04/16 00:46:03;;;;;;;;;10.67;10.67;;;;;11.38;50.66;101593.38;5057839;28;45391;-57
2023/04/16 00:48:31;;;;;;;;;8.67;8.67;;;;;11.22;50.01;101569.16;5057610;28;45481;-57
2023/04/16 00:50:57;;;;;;;;;9.67;7.00;;;;;11.30;50.34;101583.94;5057630;28;45430;-58
2023/04/16 00:53:23;;;;;;;;;7.67;7.67;;;;;11.30;51.26;101581.31;5056899;28;45509;-58
2023/04/16 00:55:49;;;;;;;;;9.67;9.00;;;;;11.30;51.23;101581.31;5057709;28;45418;-58
2023/04/16 00:58:14;;;;;;;;;9.00;9.00;;;;;11.24;50.74;101572.63;5057236;28;45418;-58
2023/04/16 01:00:40;;;;;;;;;6.67;6.67;;;;;11.28;51.15;101584.84;5057420;28;45442;-58
2023/04/16 01:03:05;;;;;;;;;8.33;8.00;;;;;11.27;51.46;101577.84;5056914;28;45509;-58
2023/04/16 01:05:31;;;;;;;;;8.00;7.33;;;;;11.26;50.90;101575.25;5057556;28;45427;-58
2023/04/16 01:08:00;;;;;;;;;8.33;8.33;;;;;11.20;51.27;101578.00;5057488;28;45454;-58
2023/04/16 01:10:25;;;;;;;;;10.33;9.00;;;;;11.21;50.96;101585.88;5056532;28;45483;-57
2023/04/16 01:12:50;;;;;;;;;9.00;7.33;;;;;11.21;51.14;101583.25;5057327;28;45509;-57
2023/04/16 01:15:16;;;;;;;;;6.67;6.67;;;;;11.23;50.87;101581.44;5057617;28;45489;-57
2023/04/16 01:17:44;;;;;;;;;9.00;9.00;;;;;11.24;51.13;101582.31;5064789;28;45436;-58
2023/04/16 01:20:10;;;;;;;;;8.67;7.67;;;;;11.16;51.46;101571.09;5048726;28;46073;-57
2023/04/16 01:22:35;;;;;;;;;7.00;7.00;;;;;11.19;50.73;101581.53;5057087;28;45379;-57
2023/04/16 01:25:01;;;;;;;;;12.00;9.00;;;;;11.20;51.58;101580.63;5057285;28;49325;-58
2023/04/16 01:27:26;;;;;;;;;7.67;7.00;;;;;11.17;51.15;101581.56;5057239;28;45506;-57
2023/04/16 01:29:51;;;;;;;;;10.00;8.00;;;;;11.13;51.14;101573.78;5056477;28;57309;-58
2023/04/16 01:32:16;;;;;;;;;9.33;9.33;;;;;11.18;51.57;101574.56;5055859;28;46164;-58
2023/04/16 01:34:42;;;;;;;;;7.67;7.67;;;;;11.18;51.76;101571.94;5057461;28;45442;-57
2023/04/16 01:37:07;;;;;;;;;8.67;8.67;;;;;11.17;51.72;101573.66;5057498;28;45461;-57
2023/04/16 01:39:32;;;;;;;;;10.33;8.33;;;;;11.17;51.50;101583.34;5056959;28;45932;-57
2023/04/16 01:41:58;;;;;;;;;8.00;8.00;;;;;11.16;51.55;101582.47;5057172;28;45549;-57
2023/04/16 01:44:24;;;;;;;;;5.67;5.67;;;;;11.14;51.10;101579.00;5056235;28;52544;-57
2023/04/16 01:46:50;;;;;;;;;9.67;9.67;;;;;11.12;51.48;101580.78;5056575;28;45448;-57
2023/04/16 01:49:15;;;;;;;;;12.67;12.00;;;;;11.00;52.05;101565.28;5056263;28;45427;-58
2023/04/16 01:51:41;;;;;;;;;7.00;7.00;;;;;11.11;52.04;101589.59;5056575;28;45447;-57
2023/04/16 01:54:06;;;;;;;;;12.00;10.33;;;;;11.11;51.69;101589.59;5056973;28;45440;-58
2023/04/16 01:56:32;;;;;;;;;13.67;12.33;;;;;11.09;52.17;101596.66;5055793;28;45451;-57
2023/04/16 01:58:57;;;;;;;;;9.00;9.00;;;;;11.03;51.29;101594.16;5056765;28;45442;-57
2023/04/16 02:01:22;;;;;;;;;10.00;10.00;;;;;11.03;52.24;101591.53;5056407;28;45443;-57
2023/04/16 02:03:48;;;;;;;;;14.25;11.00;;;;;11.02;52.74;101601.22;5056803;28;45748;-58
2023/04/16 02:06:14;;;;;;;;;14.00;14.00;;;;;10.97;52.55;101599.56;5056549;28;45374;-58
2023/04/16 02:08:40;;;;;;;;;13.75;10.50;;;;;10.96;53.71;101603.09;5056508;28;45410;-57
2023/04/16 02:11:05;;;;;;;;;13.00;13.00;;;;;10.93;53.83;101604.00;5056196;28;45324;-57
2023/04/16 02:13:31;;;;;;;;;14.00;14.00;;;;;10.88;53.33;101605.91;5056405;28;45710;-58
2023/04/16 02:15:56;;;;;;;;;13.00;12.00;;;;;10.87;54.27;101613.81;5056609;28;45585;-57
2023/04/16 02:18:21;;;;;;;;;12.67;12.67;;;;;10.82;54.09;101600.75;5056304;28;46033;-57
2023/04/16 02:20:48;;;;;;;;;13.50;13.50;;;;;10.68;53.23;101592.25;5056285;28;45544;-57
2023/04/16 02:23:15;;;;;;;;;11.25;11.25;;;;;10.73;54.12;101607.06;5055859;28;45485;-57
2023/04/16 02:25:42;;;;;;;;;17.00;13.00;;;;;10.59;54.43;101599.44;5056504;28;45476;-58
2023/04/16 02:28:09;;;;;;;;;15.75;13.00;;;;;10.56;54.37;101611.78;5056162;28;46201;-57
2023/04/16 02:30:38;;;;;;;;;11.00;11.00;;;;;10.59;54.88;101614.38;5056156;28;45477;-57
2023/04/16 02:33:06;;;;;;;;;12.25;12.00;;;;;10.44;55.08;101599.72;5056332;28;45459;-57
2023/04/16 02:35:32;;;;;;;;;12.75;12.75;;;;;10.49;55.05;101615.44;5056389;28;45547;-58
2023/04/16 02:37:58;;;;;;;;;13.00;13.00;;;;;10.38;55.43;101605.97;5055803;28;46085;-57
2023/04/16 02:40:23;;;;;;;;;12.00;10.00;;;;;10.44;55.19;101615.50;5056216;28;45447;-58
2023/04/16 02:42:49;;;;;;;;;12.25;12.25;;;;;10.44;55.02;101609.38;5056349;28;45382;-57
2023/04/16 02:45:14;;;;;;;;;13.50;11.50;;;;;10.38;54.87;101608.59;5056254;28;45374;-58
2023/04/16 02:47:40;;;;;;;;;11.75;11.75;;;;;10.39;55.46;101607.69;5055992;28;47059;-58
2023/04/16 02:50:06;;;;;;;;;12.25;10.75;;;;;10.38;54.88;101603.34;5055563;28;45390;-58
2023/04/16 02:52:32;;;;;;;;;11.50;11.25;;;;;10.34;55.39;101601.69;5055981;28;45517;-58
2023/04/16 02:54:58;;;;;;;;;10.00;9.33;;;;;10.30;55.41;101591.22;5056154;28;45455;-57
2023/04/16 02:57:23;;;;;;;;;14.50;13.25;;;;;10.41;55.64;101610.31;5054986;28;45700;-57
2023/04/16 02:59:48;;;;;;;;;15.50;14.00;;;;;10.41;55.20;101606.81;5054734;28;45457;-58
2023/04/16 03:02:14;;;;;;;;;12.00;11.67;;;;;10.40;55.48;101605.94;5056045;28;45397;-58
2023/04/16 03:04:40;;;;;;;;;7.67;7.67;;;;;10.37;55.24;101604.25;5054218;28;45584;-57
2023/04/16 03:07:05;;;;;;;;;11.00;11.00;;;;;10.36;55.67;101604.25;5054906;28;45516;-57
2023/04/16 03:09:30;;;;;;;;;17.00;10.75;;;;;10.37;55.60;101611.28;5055494;28;45440;-57
2023/04/16 03:11:56;;;;;;;;;10.67;10.67;;;;;10.36;55.88;101610.38;5055283;28;45440;-57
2023/04/16 03:14:21;;;;;;;;;14.25;12.75;;;;;10.39;54.97;101610.31;5054898;28;50329;-58
2023/04/16 03:16:46;;;;;;;;;12.00;11.00;;;;;10.31;55.42;101596.44;5055232;28;45501;-57
2023/04/16 03:19:12;;;;;;;;;11.33;10.33;;;;;10.38;55.53;101602.47;5054290;28;45420;-57
2023/04/16 03:21:37;;;;;;;;;9.25;7.75;;;;;10.40;55.13;101611.22;5055432;28;45388;-57
2023/04/16 03:24:02;;;;;;;;;9.25;9.00;;;;;10.43;55.31;101618.19;5055384;28;46208;-57
2023/04/16 03:26:28;;;;;;;;;10.33;10.33;;;;;10.44;54.36;101612.00;5054900;28;58564;-57
2023/04/16 03:28:53;;;;;;;;;10.50;10.25;;;;;10.44;54.94;101615.50;5055463;28;45367;-57
2023/04/16 03:31:18;;;;;;;;;11.50;10.75;;;;;10.42;54.69;101614.66;5055774;28;45374;-58
2023/04/16 03:33:44;;;;;;;;;9.25;9.25;;;;;10.42;54.39;101613.78;5054961;28;45332;-57
2023/04/16 03:36:10;;;;;;;;;9.50;9.50;;;;;10.41;54.91;101614.69;5054965;28;45407;-57
2023/04/16 03:38:35;;;;;;;;;10.67;9.00;;;;;10.39;55.14;101615.56;5054401;27;45302;-57
2023/04/16 03:41:00;;;;;;;;;11.25;11.25;;;;;10.35;54.08;101608.66;5055530;28;45865;-58
2023/04/16 03:43:26;;;;;;;;;9.75;9.25;;;;;10.35;54.09;101611.28;5055465;28;45628;-57
2023/04/16 03:45:51;;;;;;;;;10.00;10.00;;;;;10.37;54.50;101606.88;5054801;28;45462;-58
2023/04/16 03:48:16;;;;;;;;;11.50;9.75;;;;;10.36;54.57;101607.75;5054971;28;45696;-58
2023/04/16 03:50:46;;;;;;;;;12.00;12.00;;;;;10.37;54.95;101606.00;5055255;28;45426;-57
2023/04/16 03:53:12;;;;;;;;;11.67;9.67;;;;;10.22;54.45;101580.81;5055456;28;45456;-57
2023/04/16 03:55:37;;;;;;;;;9.00;9.00;;;;;10.26;54.36;101581.63;5055053;28;45985;-58
2023/04/16 03:58:03;;;;;;;;;7.50;6.25;;;;;10.38;55.05;101610.38;5055209;28;45313;-57
2023/04/16 04:00:29;;;;;;;;;9.50;8.50;;;;;10.37;54.69;101609.50;5055192;28;45461;-58
2023/04/16 04:02:54;;;;;;;;;11.75;10.25;;;;;10.35;54.71;101613.06;5054663;28;45561;-57
2023/04/16 04:05:20;;;;;;;;;10.50;9.50;;;;;10.32;54.68;101610.47;5054950;28;46243;-58
2023/04/16 04:07:45;;;;;;;;;10.75;10.75;;;;;10.32;54.56;101610.47;5054966;28;45340;-58
2023/04/16 04:10:10;;;;;;;;;13.00;12.75;;;;;10.32;54.71;101621.00;5055366;28;50447;-57
2023/04/16 04:12:36;;;;;;;;;9.67;9.00;;;;;10.21;54.03;101610.66;5058001;28;45412;-57
2023/04/16 04:15:01;;;;;;;;;10.50;10.50;;;;;10.25;54.23;101630.72;5058372;28;45581;-58
2023/04/16 04:17:26;;;;;;;;;15.00;8.00;;;;;10.24;54.19;101623.72;5058421;28;45375;-57
2023/04/16 04:19:52;;;;;;;;;13.00;10.67;;;;;9.98;54.39;101581.25;5057296;28;45749;-58
2023/04/16 04:22:18;;;;;;;;;9.00;9.00;;;;;10.10;54.89;101612.56;5058213;28;45474;-57
2023/04/16 04:24:43;;;;;;;;;11.00;10.25;;;;;10.15;55.00;101634.38;5056853;28;45473;-58
2023/04/16 04:27:08;;;;;;;;;12.25;10.50;;;;;10.13;54.81;101634.44;5055744;28;45513;-57
2023/04/16 04:29:34;;;;;;;;;14.00;12.50;;;;;10.03;55.53;101626.72;5056873;28;45445;-57
2023/04/16 04:31:59;;;;;;;;;17.75;14.50;;;;;10.08;55.46;101636.25;5057244;28;45457;-57
2023/04/16 04:34:25;;;;;;;;;15.00;14.00;;;;;10.06;56.04;101632.78;5057712;28;46113;-57
2023/04/16 04:36:50;;;;;;;;;15.00;14.00;;;;;10.07;55.99;101631.88;5057083;28;45509;-57
2023/04/16 04:39:15;;;;;;;;;19.25;15.75;;;;;9.94;56.72;101628.63;5059204;28;45486;-57
2023/04/16 04:41:41;;;;;;;;;16.00;16.00;;;;;9.95;57.37;101637.34;5048757;28;45425;-57
2023/04/16 04:44:06;;;;;;;;;16.50;16.50;;;;;9.96;57.57;101636.44;5055999;28;46087;-58
2023/04/16 04:46:31;;;;;;;;;21.50;18.75;;;;;9.92;57.48;101635.63;5056781;28;48460;-58
2023/04/16 04:48:56;;;;;;;;;19.50;19.50;;;;;9.72;58.17;101620.22;5056938;28;53941;-58
2023/04/16 04:51:22;;;;;;;;;21.00;19.50;;;;;9.81;58.38;101640.22;5057531;28;45606;-58
2023/04/16 04:53:47;;;;;;;;;26.75;24.75;;;;;9.81;58.34;101639.34;5057248;28;46501;-58
2023/04/16 04:56:12;;;;;;;;;21.25;19.25;;;;;9.78;58.79;101642.88;5052668;28;45633;-58
2023/04/16 04:58:38;;;;;;;;;26.50;25.00;;;;;9.67;58.69;101623.75;5047749;28;45468;-58
2023/04/16 05:01:04;;;;;;;;;24.25;23.50;;;;;9.79;59.03;101646.38;5056043;28;45531;-58
2023/04/16 05:03:30;;;;;;;;;22.00;21.00;;;;;9.71;59.16;101638.59;5056677;28;45429;-58
2023/04/16 05:05:55;;;;;;;;;23.50;20.50;;;;;9.64;59.01;101631.69;5056858;28;52289;-59
2023/04/16 05:08:20;;;;;;;;;25.50;24.25;;;;;9.77;59.12;101651.63;5056846;28;45427;-58
2023/04/16 05:10:46;;;;;;;;;22.50;20.25;;;;;9.79;59.39;101644.59;5055877;28;45601;-58
2023/04/16 05:13:11;;;;;;;;;28.50;25.50;;;;;9.84;59.46;101655.06;5054173;28;45503;-58
2023/04/16 05:15:36;;;;;;;;;22.50;18.75;;;;;9.83;59.87;101656.81;5055511;28;48594;-59
2023/04/16 05:18:02;;;;;;;;;28.50;22.75;;;;;9.80;59.56;101654.22;5057027;28;45461;-59
2023/04/16 05:20:27;;;;;;;;;28.50;26.75;;;;;9.80;59.90;101659.47;5056544;28;45473;-57
2023/04/16 05:22:54;;;;;;;;;25.75;24.75;;;;;9.63;59.82;101629.97;5056162;28;45486;-58
2023/04/16 05:25:19;;;;;;;;;26.75;26.00;;;;;9.84;59.36;101668.19;5056676;28;45632;-58
2023/04/16 05:27:45;;;;;;;;;34.50;29.00;;;;;9.84;59.44;101660.31;5056983;28;45496;-58
2023/04/16 05:30:10;;;;;;;;;31.75;27.75;;;;;9.81;59.55;101668.25;5055596;28;45451;-59
2023/04/16 05:32:39;;;;;;;;;27.50;27.00;;;;;9.79;60.12;101670.03;5056474;28;46133;-59
2023/04/16 05:35:05;;;;;;;;;30.75;28.00;;;;;9.76;59.82;101670.94;5056947;28;45394;-58
2023/04/16 05:37:30;;;;;;;;;24.25;24.25;;;;;9.76;59.71;101675.31;5056515;28;45517;-58
2023/04/16 05:39:55;;;;;;;;;29.75;29.25;;;;;9.66;60.04;101661.44;5056455;28;50698;-58
2023/04/16 05:42:21;;;;;;;;;29.50;28.75;;;;;9.70;60.18;101677.16;5056461;28;46059;-58
2023/04/16 05:44:46;;;;;;;;;29.25;26.25;;;;;9.71;60.23;101676.25;5056243;28;54624;-58
2023/04/16 05:47:11;;;;;;;;;27.25;26.75;;;;;9.67;60.09;101671.94;5056560;28;45391;-57
2023/04/16 05:49:36;;;;;;;;;27.50;26.50;;;;;9.67;60.10;101677.19;5056608;28;45489;-58
2023/04/16 05:52:06;;;;;;;;;32.75;30.50;;;;;9.71;60.00;101697.25;5056319;28;45540;-58
2023/04/16 05:54:31;;;;;;;;;33.00;31.25;;;;;9.69;60.50;101690.28;5056283;28;45545;-58
2023/04/16 05:56:56;;;;;;;;;30.75;28.25;;;;;9.66;60.28;101703.47;5056587;28;45539;-58
2023/04/16 05:59:22;;;;;;;;;30.75;30.75;;;;;9.56;60.84;101686.09;5056296;28;45568;-58
2023/04/16 06:01:47;;;;;;;;;31.25;28.00;;;;;9.60;61.26;101698.31;5056083;28;46230;-58
2023/04/16 06:04:13;;;;;;;;;33.25;31.25;;;;;9.61;60.71;101705.28;5056345;28;45470;-58
2023/04/16 06:06:39;;;;;;;;;36.00;32.50;;;;;9.57;61.28;101693.97;5056234;28;45392;-58
2023/04/16 06:09:04;;;;;;;;;32.50;28.25;;;;;9.58;61.29;101705.34;5056436;28;45383;-58
2023/04/16 06:11:29;;;;;;;;;32.75;30.50;;;;;9.62;60.88;101702.66;5055967;28;45419;-58
2023/04/16 06:13:55;;;;;;;;;39.50;34.00;;;;;9.57;61.29;101700.97;5051291;28;45503;-58
2023/04/16 06:16:20;;;;;;;;;30.25;29.25;;;;;9.61;61.48;101702.66;5047924;28;50165;-58
2023/04/16 06:18:46;;;;;;;;;38.50;32.00;;;;;9.57;61.33;101700.97;5055839;28;45414;-58
2023/04/16 06:21:11;;;;;;;;;40.00;34.25;;;;;9.61;61.02;101700.88;5055758;28;45474;-58
2023/04/16 06:23:36;;;;;;;;;37.25;33.25;;;;;9.62;61.24;101709.66;5056084;28;45438;-58
2023/04/16 06:26:01;;;;;;;;;33.00;28.75;;;;;9.63;61.63;101707.00;5055985;28;45438;-58
2023/04/16 06:28:27;;;;;;;;;38.75;33.75;;;;;9.62;61.29;101699.16;5055888;28;45425;-58
2023/04/16 06:30:52;;;;;;;;;35.25;29.75;;;;;9.69;61.48;101700.78;5055534;28;46058;-58
2023/04/16 06:33:18;;;;;;;;;36.50;34.50;;;;;9.60;61.59;101693.91;5053444;28;45430;-58
2023/04/16 06:35:43;;;;;;;;;36.00;32.50;;;;;9.69;61.24;101704.28;5055718;28;45364;-58
2023/04/16 06:38:08;;;;;;;;;36.25;34.00;;;;;9.72;60.94;101701.63;5055989;28;45458;-58
2023/04/16 06:40:36;;;;;;;;;32.25;31.00;;;;;9.72;61.06;101696.38;5055483;28;45364;-58
2023/04/16 06:43:01;;;;;;;;;38.00;35.00;;;;;9.72;61.13;101700.75;5055653;28;45499;-58
2023/04/16 06:45:27;;;;;;;;;32.50;28.50;;;;;9.69;61.21;101704.28;5055791;28;45512;-58
2023/04/16 06:47:52;;;;;;;;;37.25;33.75;;;;;9.68;61.10;101701.69;5055631;28;45392;-58
2023/04/16 06:50:18;;;;;;;;;36.25;33.25;;;;;9.61;61.07;101685.13;5055501;28;45446;-58
2023/04/16 06:52:43;;;;;;;;;34.25;31.75;;;;;9.67;61.24;101708.72;5055326;28;45356;-58
2023/04/16 06:55:09;;;;;;;;;35.00;31.75;;;;;9.59;61.07;101693.91;5054288;28;45435;-58
2023/04/16 06:57:35;;;;;;;;;39.50;34.25;;;;;9.72;61.40;101712.16;5055425;28;45376;-58
2023/04/16 07:00:00;;;;;;;;;34.50;32.00;;;;;9.70;61.06;101705.19;5054125;28;46379;-58
2023/04/16 07:02:26;;;;;;;;;41.75;34.25;;;;;9.78;61.20;101712.91;5055233;28;45454;-60
2023/04/16 07:04:51;;;;;;;;;35.00;32.75;;;;;9.68;61.22;101694.69;5055432;28;45438;-57
2023/04/16 07:07:17;;;;;;;;;44.50;33.25;;;;;9.80;61.19;101714.63;5054124;28;45506;-58
2023/04/16 07:09:42;;;;;;;;;36.50;34.00;;;;;9.90;60.82;101718.88;5055199;28;46592;-58
2023/04/16 07:12:08;;;;;;;;;34.50;33.50;;;;;9.82;60.81;101702.34;5054950;28;45514;-57
2023/04/16 07:14:33;;;;;;;;;34.50;31.50;;;;;9.91;60.71;101715.38;5055275;28;45407;-58
2023/04/16 07:16:58;;;;;;;;;31.75;29.00;;;;;9.90;60.46;101716.25;5055001;28;47600;-58
2023/04/16 07:19:24;;;;;;;;;40.00;32.00;;;;;9.86;60.78;101698.81;5055142;28;45475;-58
2023/04/16 07:21:50;;;;;;;;;35.75;30.75;;;;;10.00;60.55;101713.50;5054714;28;45785;-58
2023/04/16 07:24:16;;;;;;;;;36.50;33.50;;;;;9.92;60.32;101709.22;5055220;28;45562;-58
2023/04/16 07:26:41;;;;;;;;;31.50;29.50;;;;;10.01;60.52;101718.72;5055204;28;45461;-58
2023/04/16 07:29:06;;;;;;;;;40.00;35.00;;;;;9.91;60.12;101701.34;5054742;28;46161;-58
2023/04/16 07:31:32;;;;;;;;;40.75;33.50;;;;;10.05;60.30;101715.16;5055119;28;45420;-58
2023/04/16 07:33:57;;;;;;;;;34.75;32.00;;;;;10.02;60.34;101709.97;5054916;28;45426;-58
2023/04/16 07:36:23;;;;;;;;;34.25;31.75;;;;;10.09;59.55;101721.22;5055004;28;45578;-58
2023/04/16 07:38:48;;;;;;;;;40.00;33.75;;;;;10.01;59.68;101696.84;5054712;28;46032;-58
2023/04/16 07:41:13;;;;;;;;;40.25;34.75;;;;;10.16;59.80;101726.38;5054903;28;45491;-58
2023/04/16 07:43:39;;;;;;;;;32.50;31.75;;;;;10.17;59.63;101719.34;5054942;28;45737;-58
2023/04/16 07:46:04;;;;;;;;;41.75;33.75;;;;;10.09;59.82;101708.09;5057678;28;57335;-58
2023/04/16 07:48:29;;;;;;;;;33.75;30.50;;;;;10.15;59.52;101716.78;5058252;28;45457;-58
2023/04/16 07:50:55;;;;;;;;;33.75;32.25;;;;;10.17;59.34;101722.84;5058134;28;45431;-58
2023/04/16 07:53:20;;;;;;;;;31.00;30.50;;;;;10.18;59.25;101721.09;5058448;28;45445;-58
2023/04/16 07:55:45;;;;;;;;;38.50;34.00;;;;;10.24;59.19;101721.00;5058281;28;45560;-58
2023/04/16 07:58:11;;;;;;;;;36.25;32.25;;;;;10.26;59.49;101724.50;5058029;28;45454;-58
2023/04/16 08:00:36;;;;;;;;;37.50;34.00;;;;;10.27;59.36;101733.25;5058078;28;45412;-58
2023/04/16 08:03:02;;;;;;;;;38.25;34.00;;;;;10.27;59.56;101731.50;5058206;28;45919;-58
2023/04/16 08:05:27;;;;;;;;;33.25;30.50;;;;;10.30;59.23;101734.06;5058229;28;45606;-58
2023/04/16 08:07:53;;;;;;;;;39.00;33.25;;;;;10.32;59.70;101736.69;5058092;28;45524;-58
2023/04/16 08:10:18;;;;;;;;;38.75;35.00;;;;;10.36;59.36;101738.38;5057753;28;45482;-58
2023/04/16 08:12:43;;;;;;;;;43.00;34.00;;;;;10.37;59.49;101738.34;5058181;28;45450;-58
2023/04/16 08:15:09;;;;;;;;;32.00;28.25;;;;;10.40;59.13;101745.34;5057993;28;45453;-58
2023/04/16 08:17:36;;;;;;;;;42.50;35.25;;;;;10.43;59.14;101737.38;5057808;28;46083;-58
2023/04/16 08:20:01;;;;;;;;;36.75;33.25;;;;;10.42;59.06;101733.00;5057896;28;45553;-58
2023/04/16 08:22:27;;;;;;;;;37.25;30.50;;;;;10.47;58.81;101739.06;5057781;28;45480;-58
2023/04/16 08:24:52;;;;;;;;;39.50;35.25;;;;;10.47;59.46;101736.44;5058175;28;45414;-58
2023/04/16 08:27:17;;;;;;;;;38.25;31.75;;;;;10.51;59.01;101734.63;5057661;28;45387;-58
2023/04/16 08:29:43;;;;;;;;;33.00;32.00;;;;;10.53;58.99;101733.72;5057176;28;58840;-59
2023/04/16 08:32:09;;;;;;;;;37.00;33.50;;;;;10.57;58.90;101745.91;5057748;28;45858;-58
2023/04/16 08:34:35;;;;;;;;;25.50;24.25;;;;;10.57;58.35;101745.03;5057787;28;45316;-58
2023/04/16 08:37:01;;;;;;;;;42.50;34.50;;;;;10.59;59.34;101753.78;5056073;28;45665;-58
2023/04/16 08:39:26;;;;;;;;;43.25;33.50;;;;;10.53;59.31;101741.59;5057823;28;45387;-58
2023/04/16 08:41:52;;;;;;;;;28.75;28.00;;;;;10.51;58.68;101732.00;5057809;28;45355;-58
2023/04/16 08:44:32;;;;;;;;;32.25;32.00;;;;;10.63;58.36;101754.59;5057367;28;45528;-59
2023/04/16 08:47:00;;;;;;;;;27.75;27.50;;;;;10.65;58.36;101752.81;5057534;28;46438;-58
2023/04/16 08:49:26;;;;;;;;;32.50;31.75;;;;;10.68;58.30;101753.63;5057278;28;45493;-58
2023/04/16 08:51:54;;;;;;;;;33.50;31.50;;;;;10.69;58.17;101752.72;5057500;28;45371;-59
2023/04/16 08:54:43;;;;;;;;;38.75;34.25;;;;;10.76;58.32;101754.34;5055982;28;45585;-58
2023/04/16 08:57:10;;;;;;;;;32.50;30.50;;;;;10.79;57.72;101762.19;5056548;28;45471;-58
2023/04/16 08:59:37;;;;;;;;;34.25;30.75;;;;;10.76;57.64;101737.69;5056901;28;45472;-58
2023/04/16 09:02:05;;;;;;;;;26.25;25.50;;;;;10.90;57.54;101763.75;5057338;28;45485;-58
2023/04/16 09:04:31;;;;;;;;;26.25;24.75;;;;;10.84;56.18;101739.28;5057396;28;45540;-58
2023/04/16 09:06:58;;;;;;;;;25.00;23.75;;;;;10.96;56.06;101758.38;5056745;28;46790;-58
2023/04/16 09:09:25;;;;;;;;;29.00;24.75;;;;;10.98;56.36;101754.81;5057287;28;45440;-58
2023/04/16 09:11:52;;;;;;;;;31.50;31.50;;;;;11.04;55.69;101754.72;5057068;28;45514;-58
2023/04/16 09:14:17;;;;;;;;;25.50;24.75;;;;;11.07;55.32;101761.72;5056950;28;45503;-59
2023/04/16 09:16:45;;;;;;;;;24.25;23.50;;;;;11.11;55.69;101757.25;5056613;28;46347;-58
2023/04/16 09:19:10;;;;;;;;;29.25;24.75;;;;;11.13;55.75;101758.09;5057085;28;45416;-58
2023/04/16 09:21:38;;;;;;;;;25.50;24.00;;;;;11.17;54.88;101762.38;5056797;28;45533;-58
2023/04/16 09:24:03;;;;;;;;;32.25;26.50;;;;;11.18;55.13;101758.88;5056755;28;45390;-58
2023/04/16 09:26:29;;;;;;;;;26.75;26.25;;;;;11.22;54.36;101757.91;5056837;28;46071;-58
2023/04/16 09:28:54;;;;;;;;;27.25;25.75;;;;;11.15;54.82;101735.19;5056665;28;45370;-58
2023/04/16 09:31:20;;;;;;;;;25.50;24.50;;;;;11.30;54.21;101763.03;5056869;28;45450;-58
2023/04/16 09:34:02;;;;;;;;;27.75;25.50;;;;;11.34;54.30;101762.03;5056774;28;45367;-58
2023/04/16 09:36:27;;;;;;;;;25.25;23.00;;;;;11.24;53.95;101728.00;5056742;28;46001;-58
2023/04/16 09:38:53;;;;;;;;;22.50;22.50;;;;;11.36;54.16;101755.00;5056374;28;45598;-58
2023/04/16 09:41:24;;;;;;;;;22.75;21.50;;;;;11.44;52.63;101753.94;5056853;28;45414;-58
2023/04/16 09:43:59;;;;;;;;;19.50;17.25;;;;;11.50;51.28;101769.63;5056755;28;45403;-57
2023/04/16 09:46:33;;;;;;;;;17.00;15.33;;;;;11.53;51.00;101770.47;5056560;28;45999;-58
2023/04/16 09:49:14;;;;;;;;;18.25;17.00;;;;;11.56;51.98;101766.00;5056534;28;45961;-58
2023/04/16 09:51:43;;;;;;;;;17.33;16.67;;;;;11.63;51.47;101767.63;5056494;28;45441;-58
2023/04/16 09:54:09;;;;;;;;;17.00;15.33;;;;;11.64;51.21;101766.72;5056107;28;45497;-59
2023/04/16 09:56:42;;;;;;;;;18.75;17.50;;;;;11.70;50.90;101763.06;5056136;28;45462;-58
2023/04/16 09:59:15;;;;;;;;;16.00;16.00;;;;;11.73;50.05;101763.00;5056480;28;45584;-58
2023/04/16 10:01:41;;;;;;;;;16.00;15.00;;;;;11.76;49.16;101760.28;5056240;28;45399;-58
2023/04/16 10:04:07;;;;;;;;;14.33;14.33;;;;;11.65;49.36;101744.72;5056299;28;45588;-58
2023/04/16 10:06:32;;;;;;;;;15.00;15.00;;;;;11.80;50.39;101769.03;5054546;28;47376;-58
2023/04/16 10:08:57;;;;;;;;;15.67;14.33;;;;;11.83;50.19;101768.94;5056324;28;45366;-58
2023/04/16 10:11:23;;;;;;;;;17.67;15.33;;;;;11.86;49.13;101774.19;5056483;28;45487;-58
2023/04/16 10:13:49;;;;;;;;;18.00;17.67;;;;;11.91;50.29;101774.94;5055873;28;45468;-58
2023/04/16 10:16:15;;;;;;;;;20.25;19.50;;;;;11.93;50.12;101768.75;5055653;28;45530;-58
2023/04/16 10:18:42;;;;;;;;;16.00;15.00;;;;;11.99;50.37;101774.78;5055733;28;45677;-59
2023/04/16 10:21:11;;;;;;;;;17.67;17.67;;;;;12.04;50.68;101775.56;5056038;28;45413;-60
2023/04/16 10:23:38;;;;;;;;;15.33;14.33;;;;;12.03;49.62;101768.53;5055948;28;45420;-58
2023/04/16 10:26:04;;;;;;;;;18.00;17.00;;;;;12.09;49.85;101765.75;5055744;28;45511;-58
2023/04/16 10:28:30;;;;;;;;;22.00;18.33;;;;;12.17;49.43;101769.09;5055771;28;45469;-58
2023/04/16 10:30:57;;;;;;;;;16.67;15.00;;;;;12.23;49.30;101774.22;5055920;28;45577;-58
2023/04/16 10:33:27;;;;;;;;;15.33;15.00;;;;;12.28;49.36;101772.34;5055902;28;45637;-58
2023/04/16 10:36:12;;;;;;;;;17.33;16.00;;;;;12.26;47.40;101754.81;5055530;28;47037;-57
2023/04/16 10:38:45;;;;;;;;;13.00;13.00;;;;;12.35;47.76;101763.38;5055717;28;45513;-59
2023/04/16 10:41:11;;;;;;;;;14.00;12.67;;;;;12.36;48.21;101765.13;5056023;28;45401;-58
2023/04/16 10:43:41;;;;;;;;;15.33;14.67;;;;;12.41;47.65;101764.97;5055750;28;45344;-58
2023/04/16 10:46:30;;;;;;;;;15.33;14.00;;;;;12.47;47.37;101758.72;5055282;28;46262;-58
2023/04/16 10:48:59;;;;;;;;;15.00;14.00;;;;;12.54;48.25;101769.06;5055705;28;45488;-58
2023/04/16 10:51:31;;;;;;;;;15.00;13.33;;;;;12.58;48.78;101762.81;5055702;28;45360;-58
2023/04/16 10:54:19;;;;;;;;;14.00;13.33;;;;;12.59;49.11;101759.25;5055517;28;45367;-58
2023/04/16 10:56:45;;;;;;;;;22.67;20.00;;;;;12.70;48.77;101766.03;5055287;28;45987;-57
2023/04/16 10:59:11;;;;;;;;;14.67;14.00;;;;;12.72;48.67;101754.53;5055376;28;45577;-59
2023/04/16 11:01:41;;;;;;;;;17.00;12.00;;;;;12.79;48.50;101758.78;5055726;28;45459;-58
2023/04/16 11:04:18;;;;;;;;;17.67;14.67;;;;;12.84;48.06;101756.00;5055769;28;45638;-58
2023/04/16 11:07:15;;;;;;;;;17.00;17.00;;;;;12.91;49.38;101762.84;5055330;28;46593;-58
2023/04/16 11:09:48;;;;;;;;;17.00;15.00;;;;;12.89;48.29;101753.22;5051217;28;45511;-58
2023/04/16 11:12:26;;;;;;;;;13.00;11.33;;;;;13.00;47.89;101757.34;5041737;28;45541;-58